createdAt,value
2022-10-11T00:00:47.807Z,69.00
2022-10-11T00:03:14.773Z,69.38
2022-10-11T00:05:44.076Z,69.31
2022-10-11T00:08:14.213Z,69.37
2022-10-11T00:10:41.639Z,69.34
2022-10-11T00:13:08.698Z,69.46
2022-10-11T00:15:35.503Z,69.39
2022-10-11T00:18:05.287Z,69.65
2022-10-11T00:20:32.382Z,69.37
2022-10-11T00:22:59.125Z,69.20
2022-10-11T00:25:25.927Z,69.15
2022-10-11T00:27:52.686Z,69.30
2022-10-11T00:30:19.736Z,69.34
2022-10-11T00:32:46.543Z,69.36
2022-10-11T00:35:13.363Z,69.47
2022-10-11T00:37:40.152Z,69.34
2022-10-11T00:40:15.727Z,69.34
2022-10-11T00:42:44.744Z,69.17
2022-10-11T00:45:26.504Z,69.34
2022-10-11T00:48:00.633Z,69.29
2022-10-11T00:50:30.595Z,69.33
2022-10-11T00:53:01.234Z,69.28
2022-10-11T00:55:33.716Z,69.49
2022-10-11T00:58:01.065Z,69.42
2022-10-11T01:00:27.853Z,69.46
2022-10-11T01:02:55.284Z,69.41
2022-10-11T01:05:30.307Z,69.46
2022-10-11T01:08:00.281Z,69.46
2022-10-11T01:10:28.108Z,69.32
2022-10-11T01:13:12.821Z,69.28
2022-10-11T01:15:59.912Z,69.43
2022-10-11T01:18:49.914Z,69.44
2022-10-11T01:21:43.023Z,69.52
2022-10-11T01:24:31.241Z,69.67
2022-10-11T01:27:12.199Z,69.71
2022-10-11T01:29:57.484Z,69.64
2022-10-11T01:32:31.300Z,69.41
2022-10-11T01:35:10.938Z,69.37
2022-10-11T01:37:48.771Z,69.75
2022-10-11T01:40:32.590Z,69.65
2022-10-11T01:43:01.875Z,69.63
2022-10-11T01:45:29.656Z,69.52
2022-10-11T01:48:13.697Z,69.66
2022-10-11T01:50:49.792Z,69.56
2022-10-11T01:53:28.747Z,69.52
2022-10-11T01:56:16.496Z,69.70
2022-10-11T01:58:55.173Z,69.61
2022-10-11T02:01:56.189Z,69.98
2022-10-11T02:04:48.812Z,69.80
2022-10-11T02:07:40.460Z,70.03
2022-10-11T02:10:15.800Z,70.02
2022-10-11T02:12:46.601Z,69.98
2022-10-11T02:15:17.149Z,70.39
2022-10-11T02:17:49.490Z,70.45
2022-10-11T02:20:21.367Z,70.70
2022-10-11T02:22:51.768Z,70.81
2022-10-11T02:25:24.831Z,70.83
2022-10-11T02:27:56.972Z,70.72
2022-10-11T02:30:24.034Z,71.12
2022-10-11T02:32:52.838Z,71.21
2022-10-11T02:35:24.461Z,71.26
2022-10-11T02:38:05.589Z,71.34
2022-10-11T02:40:33.483Z,72.04
2022-10-11T02:43:09.148Z,71.42
2022-10-11T02:45:43.258Z,71.63
2022-10-11T02:48:12.498Z,71.49
2022-10-11T02:50:40.546Z,71.78
2022-10-11T02:53:07.986Z,71.78
2022-10-11T02:55:35.103Z,71.95
2022-10-11T02:58:02.252Z,72.03
2022-10-11T03:00:29.230Z,71.97
2022-10-11T03:02:56.029Z,72.15
2022-10-11T03:05:22.863Z,72.17
2022-10-11T03:07:49.670Z,72.12
2022-10-11T03:10:16.697Z,72.38
2022-10-11T03:12:44.729Z,72.38
2022-10-11T03:15:11.535Z,72.38
2022-10-11T03:17:38.293Z,72.22
2022-10-11T03:20:06.705Z,72.19
2022-10-11T03:22:33.441Z,72.31
2022-10-11T03:25:03.922Z,72.44
2022-10-11T03:27:32.112Z,72.41
2022-10-11T03:29:58.996Z,72.60
2022-10-11T03:32:25.861Z,72.71
2022-10-11T03:34:52.750Z,72.59
2022-10-11T03:37:19.552Z,72.64
2022-10-11T03:39:46.509Z,72.67
2022-10-11T03:42:14.004Z,72.88
2022-10-11T03:44:42.231Z,72.96
2022-10-11T03:47:09.562Z,72.76
2022-10-11T03:49:39.972Z,72.62
2022-10-11T03:52:10.746Z,72.60
2022-10-11T03:54:37.508Z,72.48
2022-10-11T03:57:04.504Z,72.33
2022-10-11T03:59:31.439Z,72.31
2022-10-11T04:01:58.248Z,72.28
2022-10-11T04:04:25.111Z,72.36
2022-10-11T04:06:51.901Z,72.42
2022-10-11T04:09:18.669Z,72.34
2022-10-11T04:11:45.458Z,72.31
2022-10-11T04:14:12.242Z,72.52
2022-10-11T04:16:40.181Z,72.42
2022-10-11T04:19:07.221Z,72.33
2022-10-11T04:21:34.236Z,72.59
2022-10-11T04:24:00.994Z,72.42
2022-10-11T04:26:27.720Z,73.03
2022-10-11T04:28:54.806Z,73.32
2022-10-11T04:31:21.672Z,73.17
2022-10-11T04:33:48.464Z,73.00
2022-10-11T04:36:15.268Z,72.82
2022-10-11T04:38:42.173Z,72.53
2022-10-11T04:41:10.659Z,72.89
2022-10-11T04:43:37.711Z,72.94
2022-10-11T04:46:05.263Z,72.72
2022-10-11T04:48:32.524Z,72.45
2022-10-11T04:50:59.277Z,72.42
2022-10-11T04:53:26.125Z,72.39
2022-10-11T04:56:01.555Z,72.55
2022-10-11T04:58:29.841Z,72.60
2022-10-11T05:00:57.423Z,72.89
2022-10-11T05:03:25.060Z,72.77
2022-10-11T05:05:53.020Z,72.69
2022-10-11T05:08:20.585Z,72.83
2022-10-11T05:11:05.331Z,72.83
2022-10-11T05:13:33.718Z,72.83
2022-10-11T05:16:00.694Z,72.97
2022-10-11T05:18:27.546Z,73.12
2022-10-11T05:21:02.643Z,73.10
2022-10-11T05:23:31.491Z,72.88
2022-10-11T05:25:59.131Z,73.07
2022-10-11T05:28:26.748Z,73.23
2022-10-11T05:30:53.925Z,73.61
2022-10-11T05:33:21.250Z,73.59
2022-10-11T05:35:48.009Z,73.80
2022-10-11T05:38:14.862Z,73.43
2022-10-11T05:40:41.608Z,73.60
2022-10-11T05:43:08.543Z,73.21
2022-10-11T05:45:38.078Z,73.54
2022-10-11T05:48:05.199Z,73.52
2022-10-11T05:50:32.571Z,73.43
2022-10-11T05:52:59.592Z,73.18
2022-10-11T05:55:26.396Z,73.29
2022-10-11T05:57:56.530Z,73.07
2022-10-11T06:00:24.930Z,73.04
2022-10-11T06:02:51.706Z,72.89
2022-10-11T06:05:18.650Z,72.67
2022-10-11T06:07:45.471Z,72.82
2022-10-11T06:10:12.362Z,72.83
2022-10-11T06:12:39.212Z,72.82
2022-10-11T06:15:06.599Z,72.82
2022-10-11T06:17:33.434Z,72.63
2022-10-11T06:20:00.183Z,73.04
2022-10-11T06:22:27.573Z,72.76
2022-10-11T06:24:54.352Z,72.81
2022-10-11T06:27:21.181Z,72.71
2022-10-11T06:29:48.026Z,72.83
2022-10-11T06:32:15.001Z,72.66
2022-10-11T06:34:41.774Z,72.77
2022-10-11T06:37:08.578Z,72.77
2022-10-11T06:39:35.385Z,72.89
2022-10-11T06:42:02.295Z,72.81
2022-10-11T06:44:29.374Z,72.83
2022-10-11T06:46:56.258Z,72.73
2022-10-11T06:49:23.651Z,72.76
2022-10-11T06:51:51.068Z,72.21
2022-10-11T06:54:17.916Z,72.20
2022-10-11T06:56:45.814Z,71.97
2022-10-11T06:59:13.579Z,72.11
2022-10-11T07:01:40.818Z,71.62
2022-10-11T07:04:08.426Z,71.99
2022-10-11T07:06:40.373Z,71.69
2022-10-11T07:09:08.568Z,71.78
2022-10-11T07:11:35.830Z,71.93
2022-10-11T07:14:07.763Z,72.06
2022-10-11T07:16:36.525Z,72.18
2022-10-11T07:19:06.140Z,72.29
2022-10-11T07:21:35.008Z,72.17
2022-10-11T07:24:02.406Z,72.08
2022-10-11T07:26:35.291Z,72.12
2022-10-11T07:29:05.283Z,72.21
2022-10-11T07:31:32.187Z,72.40
2022-10-11T07:33:58.926Z,72.40
2022-10-11T07:36:26.046Z,72.77
2022-10-11T07:38:52.948Z,72.89
2022-10-11T07:41:20.013Z,72.57
2022-10-11T07:43:49.874Z,72.05
2022-10-11T07:46:18.478Z,72.08
2022-10-11T07:48:45.402Z,71.81
2022-10-11T07:51:15.290Z,71.70
2022-10-11T07:53:44.461Z,71.61
2022-10-11T07:56:13.220Z,71.64
2022-10-11T07:58:41.629Z,71.79
2022-10-11T08:01:09.298Z,71.26
2022-10-11T08:03:37.573Z,70.89
2022-10-11T08:06:09.728Z,70.63
2022-10-11T08:08:37.622Z,70.15
2022-10-11T08:11:05.923Z,69.84
2022-10-11T08:13:33.411Z,69.81
2022-10-11T08:16:00.333Z,69.89
2022-10-11T08:18:28.138Z,69.85
2022-10-11T08:20:55.020Z,69.59
2022-10-11T08:23:21.815Z,69.30
2022-10-11T08:25:48.888Z,69.02
2022-10-11T08:28:17.879Z,69.17
2022-10-11T08:30:49.635Z,69.61
2022-10-11T08:33:20.390Z,69.09
2022-10-11T08:35:47.775Z,69.24
2022-10-11T08:38:14.982Z,68.72
2022-10-11T08:40:49.486Z,68.40
2022-10-11T08:43:41.250Z,68.51
2022-10-11T08:46:10.074Z,68.30
2022-10-11T08:48:42.266Z,68.87
2022-10-11T08:51:18.447Z,68.27
2022-10-11T08:53:59.826Z,68.91
2022-10-11T08:56:30.300Z,68.67
2022-10-11T08:59:12.199Z,68.62
2022-10-11T09:01:46.453Z,68.47
2022-10-11T09:04:18.142Z,68.61
2022-10-11T09:07:05.135Z,67.62
2022-10-11T09:09:51.492Z,67.15
2022-10-11T09:12:40.610Z,66.35
2022-10-11T09:15:29.398Z,66.29
2022-10-11T09:18:26.151Z,66.81
2022-10-11T09:21:08.378Z,66.25
2022-10-11T09:24:09.388Z,65.70
2022-10-11T09:26:49.551Z,64.91
2022-10-11T09:29:40.382Z,65.10
2022-10-11T09:32:15.395Z,64.86
2022-10-11T09:34:42.767Z,64.20
2022-10-11T09:37:30.533Z,64.24
2022-10-11T09:40:03.353Z,64.54
2022-10-11T09:42:30.074Z,64.50
2022-10-11T09:44:57.639Z,63.97
2022-10-11T09:47:27.166Z,64.04
2022-10-11T09:49:58.152Z,62.95
2022-10-11T09:52:25.089Z,62.93
2022-10-11T09:54:55.427Z,63.92
2022-10-11T09:57:28.523Z,63.45
2022-10-11T10:00:19.171Z,62.75
2022-10-11T10:02:51.452Z,62.91
2022-10-11T10:05:20.242Z,63.58
2022-10-11T10:08:20.367Z,63.24
2022-10-11T10:11:08.343Z,63.18
2022-10-11T10:13:42.724Z,63.11
2022-10-11T10:16:27.097Z,62.53
2022-10-11T10:19:21.554Z,62.87
2022-10-11T10:21:51.302Z,62.80
2022-10-11T10:24:39.336Z,61.27
2022-10-11T10:27:17.127Z,61.67
2022-10-11T10:29:59.639Z,61.81
2022-10-11T10:32:34.002Z,62.34
2022-10-11T10:35:06.765Z,61.73
2022-10-11T10:37:42.678Z,60.76
2022-10-11T10:40:16.182Z,60.10
2022-10-11T10:42:43.180Z,59.98
2022-10-11T10:45:21.584Z,59.56
2022-10-11T10:48:06.992Z,58.89
2022-10-11T10:50:52.133Z,58.52
2022-10-11T10:53:18.884Z,58.48
2022-10-11T10:56:00.111Z,57.79
2022-10-11T10:58:42.057Z,58.72
2022-10-11T11:01:23.966Z,58.03
2022-10-11T11:04:05.879Z,58.08
2022-10-11T11:06:41.679Z,58.02
2022-10-11T11:09:34.528Z,58.35
2022-10-11T11:12:25.601Z,58.31
2022-10-11T11:14:52.205Z,57.82
2022-10-11T11:17:30.497Z,58.09
2022-10-11T11:20:24.804Z,57.88
2022-10-11T11:23:12.933Z,57.61
2022-10-11T11:25:53.557Z,57.08
2022-10-11T11:28:34.499Z,57.58
2022-10-11T11:31:11.897Z,56.79
2022-10-11T11:33:45.143Z,57.25
2022-10-11T11:36:26.444Z,56.59
2022-10-11T11:39:01.534Z,55.72
2022-10-11T11:41:41.351Z,56.39
2022-10-11T11:44:27.616Z,56.01
2022-10-11T11:47:11.923Z,56.07
2022-10-11T11:50:22.830Z,55.72
2022-10-11T11:52:58.258Z,54.58
2022-10-11T11:55:53.910Z,53.56
2022-10-11T11:58:28.482Z,54.96
2022-10-11T12:01:10.894Z,55.13
2022-10-11T12:03:43.187Z,55.35
2022-10-11T12:06:18.323Z,55.47
2022-10-11T12:08:48.909Z,54.19
2022-10-11T12:11:38.789Z,54.18
2022-10-11T12:14:29.651Z,54.48
2022-10-11T12:17:14.480Z,54.19
2022-10-11T12:19:58.480Z,54.14
2022-10-11T12:22:28.378Z,53.87
2022-10-11T12:25:13.774Z,53.01
2022-10-11T12:27:46.184Z,51.55
2022-10-11T12:30:43.869Z,50.73
2022-10-11T12:33:50.584Z,49.14
2022-10-11T12:36:32.433Z,49.28
2022-10-11T12:39:21.210Z,48.85
2022-10-11T12:41:48.548Z,49.15
2022-10-11T12:44:27.232Z,49.65
2022-10-11T12:46:54.257Z,50.01
2022-10-11T12:49:51.360Z,48.85
2022-10-11T12:52:18.283Z,48.17
2022-10-11T12:55:26.394Z,46.16
2022-10-11T12:58:17.530Z,45.83
2022-10-11T13:01:04.363Z,45.66
2022-10-11T13:03:36.760Z,45.94
2022-10-11T13:06:11.773Z,43.17
2022-10-11T13:08:43.285Z,45.53
2022-10-11T13:11:19.598Z,45.51
2022-10-11T13:13:56.622Z,45.41
2022-10-11T13:16:30.926Z,45.15
2022-10-11T13:19:00.335Z,46.01
2022-10-11T13:21:32.088Z,46.62
2022-10-11T13:24:06.791Z,46.96
2022-10-11T13:26:34.201Z,47.30
2022-10-11T13:29:01.259Z,47.20
2022-10-11T13:31:28.358Z,47.62
2022-10-11T13:33:59.241Z,47.79
2022-10-11T13:36:27.362Z,47.59
2022-10-11T13:38:57.942Z,47.93
2022-10-11T13:41:30.499Z,48.07
2022-10-11T13:43:59.582Z,47.89
2022-10-11T13:46:28.182Z,48.63
2022-10-11T13:49:21.290Z,48.82
2022-10-11T13:51:59.019Z,48.60
2022-10-11T13:54:48.774Z,48.63
2022-10-11T13:57:15.653Z,48.96
2022-10-11T13:59:44.057Z,48.91
2022-10-11T14:02:22.464Z,48.28
2022-10-11T14:04:50.073Z,48.90
2022-10-11T14:07:31.726Z,48.23
2022-10-11T14:09:59.238Z,48.49
2022-10-11T14:12:25.995Z,48.53
2022-10-11T14:14:53.075Z,48.90
2022-10-11T14:17:23.101Z,48.33
2022-10-11T14:20:13.643Z,48.47
2022-10-11T14:22:40.441Z,49.54
2022-10-11T14:25:07.283Z,49.42
2022-10-11T14:27:34.080Z,49.00
2022-10-11T14:30:23.989Z,48.86
2022-10-11T14:32:50.106Z,49.42
2022-10-11T14:35:28.406Z,48.60
2022-10-11T14:37:55.346Z,48.38
2022-10-11T14:40:24.625Z,48.56
2022-10-11T14:42:52.014Z,48.97
2022-10-11T14:45:21.171Z,49.07
2022-10-11T14:47:48.364Z,49.01
2022-10-11T14:50:36.818Z,49.01
2022-10-11T14:53:05.905Z,48.86
2022-10-11T14:55:33.117Z,48.43
2022-10-11T14:58:00.013Z,49.05
2022-10-11T15:00:28.476Z,48.81
2022-10-11T15:02:55.856Z,48.64
2022-10-11T15:05:27.741Z,49.24
2022-10-11T15:07:59.790Z,48.93
2022-10-11T15:10:30.759Z,49.56
2022-10-11T15:12:57.713Z,49.09
2022-10-11T15:15:26.737Z,49.10
2022-10-11T15:17:57.116Z,49.03
2022-10-11T15:20:33.342Z,49.19
2022-10-11T15:23:01.048Z,49.47
2022-10-11T15:25:29.164Z,49.39
2022-10-11T15:27:59.385Z,49.45
2022-10-11T15:30:30.228Z,49.63
2022-10-11T15:32:57.590Z,49.32
2022-10-11T15:35:25.313Z,49.81
2022-10-11T15:37:54.159Z,50.19
2022-10-11T15:40:28.411Z,50.50
2022-10-11T15:42:55.225Z,50.27
2022-10-11T15:45:23.533Z,50.23
2022-10-11T15:47:50.693Z,50.92
2022-10-11T15:50:33.694Z,50.92
2022-10-11T15:53:01.685Z,51.36
2022-10-11T15:55:29.354Z,51.37
2022-10-11T15:57:56.211Z,51.54
2022-10-11T16:00:26.066Z,51.91
2022-10-11T16:02:53.674Z,52.20
2022-10-11T16:05:21.837Z,52.09
2022-10-11T16:07:48.711Z,52.45
2022-10-11T16:10:15.915Z,52.59
2022-10-11T16:12:43.127Z,52.75
2022-10-11T16:15:10.777Z,52.44
2022-10-11T16:17:37.852Z,52.90
2022-10-11T16:20:06.857Z,52.28
2022-10-11T16:22:36.598Z,52.53
2022-10-11T16:25:05.072Z,52.71
2022-10-11T16:27:32.891Z,53.19
2022-10-11T16:30:00.608Z,53.14
2022-10-11T16:32:28.167Z,53.54
2022-10-11T16:34:55.054Z,53.84
2022-10-11T16:37:21.843Z,53.84
2022-10-11T16:39:48.618Z,53.88
2022-10-11T16:42:15.510Z,53.74
2022-10-11T16:44:42.315Z,53.66
2022-10-11T16:47:09.396Z,54.05
2022-10-11T16:49:36.529Z,54.39
2022-10-11T16:52:04.640Z,54.61
2022-10-11T16:54:32.474Z,54.57
2022-10-11T16:57:00.155Z,54.83
2022-10-11T16:59:27.362Z,55.16
2022-10-11T17:01:54.294Z,55.45
2022-10-11T17:04:21.926Z,55.58
2022-10-11T17:06:49.063Z,55.34
2022-10-11T17:09:16.425Z,55.35
2022-10-11T17:11:43.687Z,55.85
2022-10-11T17:14:14.414Z,55.99
2022-10-11T17:16:44.275Z,55.84
2022-10-11T17:19:13.513Z,55.46
2022-10-11T17:21:42.697Z,55.53
2022-10-11T17:24:10.070Z,55.30
2022-10-11T17:26:36.868Z,55.71
2022-10-11T17:29:04.133Z,56.06
2022-10-11T17:31:31.033Z,56.03
2022-10-11T17:34:00.115Z,56.20
2022-10-11T17:36:34.800Z,55.97
2022-10-11T17:39:09.541Z,56.22
2022-10-11T17:41:36.843Z,56.61
2022-10-11T17:44:03.778Z,56.59
2022-10-11T17:46:32.914Z,56.13
2022-10-11T17:49:01.776Z,56.39
2022-10-11T17:51:28.745Z,56.49
2022-10-11T17:53:55.468Z,56.72
2022-10-11T17:56:29.581Z,56.91
2022-10-11T17:58:59.066Z,56.72
2022-10-11T18:01:28.277Z,57.03
2022-10-11T18:04:00.249Z,56.99
2022-10-11T18:06:30.907Z,56.79
2022-10-11T18:09:01.011Z,56.48
2022-10-11T18:11:28.019Z,56.81
2022-10-11T18:14:10.114Z,56.74
2022-10-11T18:16:38.673Z,56.75
2022-10-11T18:19:11.441Z,56.85
2022-10-11T18:21:40.025Z,57.02
2022-10-11T18:24:11.796Z,57.00
2022-10-11T18:26:39.747Z,57.09
2022-10-11T18:29:06.877Z,57.27
2022-10-11T18:31:35.374Z,57.47
2022-10-11T18:34:04.260Z,57.47
2022-10-11T18:36:31.931Z,57.67
2022-10-11T18:39:03.018Z,57.73
2022-10-11T18:41:33.080Z,58.19
2022-10-11T18:44:06.677Z,57.81
2022-10-11T18:46:34.053Z,57.69
2022-10-11T18:49:02.183Z,57.78
2022-10-11T18:51:34.457Z,57.89
2022-10-11T18:54:04.391Z,57.83
2022-10-11T18:56:32.364Z,57.74
2022-10-11T18:59:00.320Z,57.69
2022-10-11T19:01:33.783Z,57.98
2022-10-11T19:04:04.771Z,58.05
2022-10-11T19:06:34.937Z,58.11
2022-10-11T19:09:06.430Z,58.14
2022-10-11T19:11:33.341Z,58.33
2022-10-11T19:14:21.156Z,58.20
2022-10-11T19:16:52.303Z,58.46
2022-10-11T19:19:23.696Z,58.63
2022-10-11T19:21:54.263Z,59.05
2022-10-11T19:24:23.773Z,59.19
2022-10-11T19:26:52.944Z,59.38
2022-10-11T19:29:22.971Z,59.72
2022-10-11T19:31:56.094Z,60.04
2022-10-11T19:34:31.763Z,60.29
2022-10-11T19:37:01.063Z,60.46
2022-10-11T19:39:28.727Z,60.82
2022-10-11T19:41:55.747Z,61.14
2022-10-11T19:44:22.590Z,61.83
2022-10-11T19:46:51.881Z,61.83
2022-10-11T19:49:21.658Z,62.03
2022-10-11T19:51:48.552Z,62.08
2022-10-11T19:54:15.966Z,62.09
2022-10-11T19:56:43.536Z,62.10
2022-10-11T19:59:12.458Z,62.03
2022-10-11T20:01:40.057Z,62.04
2022-10-11T20:04:09.279Z,61.88
2022-10-11T20:06:40.096Z,61.72
2022-10-11T20:11:55.738Z,61.43
2022-10-11T20:14:22.664Z,61.49
2022-10-11T20:16:50.307Z,61.77
2022-10-11T20:19:17.396Z,61.68
2022-10-11T20:21:45.115Z,61.80
2022-10-11T20:24:12.281Z,61.87
2022-10-11T20:26:39.540Z,61.91
2022-10-11T20:29:07.101Z,61.71
2022-10-11T20:31:38.249Z,62.17
2022-10-11T20:34:07.323Z,62.00
2022-10-11T20:36:36.276Z,62.52
2022-10-11T20:39:04.628Z,62.50
2022-10-11T20:41:34.208Z,62.97
2022-10-11T20:44:02.218Z,62.70
2022-10-11T20:46:33.560Z,62.86
2022-10-11T20:49:06.260Z,62.89
2022-10-11T20:51:36.165Z,62.82
2022-10-11T20:54:04.962Z,63.06
2022-10-11T20:56:31.788Z,62.97
2022-10-11T20:58:58.695Z,62.81
2022-10-11T21:01:28.374Z,63.00
2022-10-11T21:03:58.151Z,63.00
2022-10-11T21:06:25.753Z,62.98
2022-10-11T21:08:54.892Z,62.93
2022-10-11T21:11:21.783Z,62.79
2022-10-11T21:13:48.610Z,62.79
2022-10-11T21:16:16.398Z,63.12
2022-10-11T21:18:43.233Z,63.17
2022-10-11T21:21:14.285Z,63.22
2022-10-11T21:23:41.303Z,63.57
2022-10-11T21:26:10.400Z,63.23
2022-10-11T21:28:38.458Z,63.53
2022-10-11T21:31:06.945Z,63.57
2022-10-11T21:33:34.746Z,63.87
2022-10-11T21:36:09.754Z,63.98
2022-10-11T21:38:36.802Z,64.11
2022-10-11T21:41:06.936Z,64.40
2022-10-11T21:43:35.832Z,64.43
2022-10-11T21:46:15.155Z,64.51
2022-10-11T21:48:41.970Z,64.16
2022-10-11T21:51:15.714Z,63.97
2022-10-11T21:53:42.574Z,63.54
2022-10-11T21:56:09.444Z,63.47
2022-10-11T21:58:36.233Z,63.42
2022-10-11T22:01:05.059Z,63.24
2022-10-11T22:03:32.718Z,63.31
2022-10-11T22:06:03.727Z,63.57
2022-10-11T22:08:30.847Z,63.52
2022-10-11T22:11:00.224Z,63.50
2022-10-11T22:13:29.341Z,63.46
2022-10-11T22:15:57.429Z,63.42
2022-10-11T22:18:25.363Z,63.66
2022-10-11T22:20:53.396Z,63.65
2022-10-11T22:23:21.038Z,63.57
2022-10-11T22:25:51.570Z,63.44
2022-10-11T22:28:19.410Z,63.59
2022-10-11T22:30:50.583Z,63.53
2022-10-11T22:33:21.192Z,63.55
2022-10-11T22:35:53.563Z,63.35
2022-10-11T22:38:24.253Z,63.60
2022-10-11T22:40:56.077Z,63.56
2022-10-11T22:43:23.851Z,63.54
2022-10-11T22:45:51.563Z,63.65
2022-10-11T22:48:19.465Z,63.59
2022-10-11T22:50:53.119Z,63.81
2022-10-11T22:53:21.118Z,63.74
2022-10-11T22:55:48.879Z,63.95
2022-10-11T22:58:17.772Z,63.86
2022-10-11T23:00:45.179Z,63.75
2022-10-11T23:03:14.248Z,63.28
2022-10-11T23:05:42.175Z,63.55
2022-10-11T23:08:10.134Z,63.39
2022-10-11T23:10:40.853Z,63.59
2022-10-11T23:13:08.757Z,63.19
2022-10-11T23:15:50.396Z,63.04
2022-10-11T23:18:20.516Z,63.15
2022-10-11T23:20:48.267Z,62.96
2022-10-11T23:23:20.938Z,63.11
2022-10-11T23:25:48.081Z,62.98
2022-10-11T23:28:15.078Z,63.28
2022-10-11T23:30:43.686Z,63.23
2022-10-11T23:33:10.949Z,63.45
2022-10-11T23:35:38.375Z,63.40
2022-10-11T23:38:05.258Z,63.36
2022-10-11T23:40:32.404Z,63.31
2022-10-11T23:42:59.574Z,63.24
2022-10-11T23:45:26.837Z,63.35
2022-10-11T23:47:53.980Z,63.40
2022-10-11T23:50:21.038Z,63.45
2022-10-11T23:52:48.414Z,63.60
2022-10-11T23:55:15.484Z,63.58
2022-10-11T23:57:42.513Z,63.38
